createdAt,value
2023-04-10T00:00:33.241Z,55.53
2023-04-10T00:03:19.519Z,63.10
2023-04-10T00:05:46.759Z,58.95
2023-04-10T00:08:13.618Z,55.25
2023-04-10T00:10:41.058Z,60.15
2023-04-10T00:13:07.899Z,58.23
2023-04-10T00:15:35.348Z,53.50
2023-04-10T00:18:02.301Z,55.47
2023-04-10T00:20:29.615Z,52.90
2023-04-10T00:22:56.582Z,43.63
2023-04-10T00:25:23.793Z,53.83
2023-04-10T00:27:50.750Z,51.08
2023-04-10T00:30:17.949Z,52.88
2023-04-10T00:32:44.953Z,50.50
2023-04-10T00:35:12.311Z,53.80
2023-04-10T00:37:39.477Z,57.03
2023-04-10T00:40:07.505Z,44.95
2023-04-10T00:42:34.411Z,41.58
2023-04-10T00:45:01.673Z,40.45
2023-04-10T00:47:29.178Z,40.58
2023-04-10T00:49:56.329Z,48.80
2023-04-10T00:52:24.677Z,41.58
2023-04-10T00:54:52.746Z,44.42
2023-04-10T00:57:19.735Z,42.75
2023-04-10T00:59:48.411Z,46.10
2023-04-10T01:02:15.637Z,43.45
2023-04-10T01:04:43.331Z,43.83
2023-04-10T01:07:35.566Z,41.35
2023-04-10T01:10:18.282Z,43.05
2023-04-10T01:13:33.367Z,40.20
2023-04-10T01:16:13.287Z,43.10
2023-04-10T01:18:46.608Z,43.53
2023-04-10T01:21:16.368Z,44.38
2023-04-10T01:24:16.531Z,46.85
2023-04-10T01:26:46.377Z,45.67
2023-04-10T01:29:19.799Z,49.08
2023-04-10T01:31:55.449Z,45.08
2023-04-10T01:34:32.531Z,46.17
2023-04-10T01:37:05.579Z,48.50
2023-04-10T01:39:36.604Z,47.35
2023-04-10T01:42:06.584Z,45.30
2023-04-10T01:44:36.281Z,47.58
2023-04-10T01:47:05.023Z,46.78
2023-04-10T01:49:33.231Z,50.17
2023-04-10T01:52:01.760Z,45.75
2023-04-10T01:54:29.230Z,45.17
2023-04-10T01:56:57.200Z,46.25
2023-04-10T01:59:24.240Z,47.63
2023-04-10T02:01:57.691Z,48.33
2023-04-10T02:04:26.697Z,48.67
2023-04-10T02:07:45.733Z,51.92
2023-04-10T02:10:19.329Z,50.05
2023-04-10T02:12:53.746Z,47.65
2023-04-10T02:15:22.807Z,49.97
2023-04-10T02:17:52.581Z,47.35
2023-04-10T02:20:20.292Z,46.78
2023-04-10T02:22:47.901Z,48.13
2023-04-10T02:25:15.645Z,47.08
2023-04-10T02:27:42.841Z,45.03
2023-04-10T02:30:09.946Z,45.92
2023-04-10T02:32:37.802Z,46.10
2023-04-10T02:35:04.998Z,45.22
2023-04-10T02:37:33.324Z,46.50
2023-04-10T02:40:00.263Z,42.30
2023-04-10T02:42:27.667Z,44.40
2023-04-10T02:44:54.509Z,41.95
2023-04-10T02:47:22.011Z,43.15
2023-04-10T02:49:48.903Z,41.78
2023-04-10T02:52:17.429Z,40.22
2023-04-10T02:54:44.360Z,42.28
2023-04-10T02:57:11.872Z,45.38
2023-04-10T02:59:38.780Z,45.08
2023-04-10T03:02:05.933Z,45.53
2023-04-10T03:04:32.984Z,43.20
2023-04-10T03:07:00.515Z,47.88
2023-04-10T03:09:27.385Z,44.08
2023-04-10T03:11:54.971Z,44.60
2023-04-10T03:14:21.847Z,44.42
2023-04-10T03:16:49.072Z,46.47
2023-04-10T03:19:16.367Z,42.63
2023-04-10T03:21:43.528Z,41.05
2023-04-10T03:24:10.518Z,43.85
2023-04-10T03:26:37.776Z,43.97
2023-04-10T03:29:04.734Z,43.67
2023-04-10T03:31:31.960Z,41.80
2023-04-10T03:33:58.945Z,42.75
2023-04-10T03:36:26.980Z,43.85
2023-04-10T03:38:53.782Z,43.13
2023-04-10T03:41:23.566Z,45.38
2023-04-10T03:43:51.853Z,41.85
2023-04-10T03:46:19.097Z,41.72
2023-04-10T03:48:46.010Z,42.13
2023-04-10T03:51:13.180Z,40.08
2023-04-10T03:53:40.067Z,39.70
2023-04-10T03:56:08.290Z,42.78
2023-04-10T03:58:35.332Z,44.17
2023-04-10T04:01:02.515Z,46.95
2023-04-10T04:03:29.543Z,42.65
2023-04-10T04:05:56.724Z,42.78
2023-04-10T04:08:23.562Z,42.40
2023-04-10T04:10:50.870Z,42.50
2023-04-10T04:13:17.926Z,42.15
2023-04-10T04:15:45.114Z,42.70
2023-04-10T04:18:12.043Z,44.95
2023-04-10T04:20:39.197Z,43.35
2023-04-10T04:23:06.032Z,43.33
2023-04-10T04:25:33.222Z,42.85
2023-04-10T04:28:00.118Z,45.58
2023-04-10T04:30:27.341Z,42.78
2023-04-10T04:32:54.236Z,43.92
2023-04-10T04:35:22.019Z,41.20
2023-04-10T04:37:48.840Z,47.67
2023-04-10T04:40:16.148Z,45.35
2023-04-10T04:42:43.045Z,43.47
2023-04-10T04:45:10.557Z,43.33
2023-04-10T04:47:37.460Z,43.78
2023-04-10T04:50:05.020Z,86.68
2023-04-10T04:52:32.289Z,226.27
2023-04-10T04:54:59.502Z,104.75
2023-04-10T04:57:26.398Z,68.18
2023-04-10T04:59:53.690Z,59.90
2023-04-10T05:02:22.702Z,60.83
2023-04-10T05:04:50.420Z,55.10
2023-04-10T05:07:17.343Z,56.45
2023-04-10T05:09:44.507Z,55.10
2023-04-10T05:12:11.408Z,52.78
2023-04-10T05:14:38.566Z,45.67
2023-04-10T05:17:05.554Z,40.25
2023-04-10T05:19:32.800Z,39.03
2023-04-10T05:21:59.649Z,36.60
2023-04-10T05:24:26.794Z,41.50
2023-04-10T05:26:53.681Z,35.72
2023-04-10T05:29:20.876Z,35.92
2023-04-10T05:31:47.764Z,36.88
2023-04-10T05:34:14.907Z,37.53
2023-04-10T05:36:41.811Z,38.00
2023-04-10T05:39:09.069Z,36.85
2023-04-10T05:41:36.167Z,34.97
2023-04-10T05:44:03.387Z,35.97
2023-04-10T05:46:30.341Z,36.63
2023-04-10T05:48:58.423Z,34.03
2023-04-10T05:51:26.292Z,34.38
2023-04-10T05:53:53.432Z,35.00
2023-04-10T05:56:21.214Z,34.05
2023-04-10T05:58:48.421Z,35.58
2023-04-10T06:01:15.267Z,34.65
2023-04-10T06:03:42.832Z,32.90
2023-04-10T06:06:09.864Z,31.75
2023-04-10T06:08:37.046Z,39.42
2023-04-10T06:11:04.030Z,39.78
2023-04-10T06:13:32.506Z,45.25
2023-04-10T06:15:59.453Z,37.53
2023-04-10T06:18:26.819Z,35.42
2023-04-10T06:20:54.038Z,32.53
2023-04-10T06:23:21.307Z,35.35
2023-04-10T06:25:48.710Z,32.58
2023-04-10T06:28:16.089Z,31.17
2023-04-10T06:30:42.937Z,33.65
2023-04-10T06:33:10.996Z,32.75
2023-04-10T06:35:38.071Z,34.85
2023-04-10T06:38:05.410Z,34.30
2023-04-10T06:40:34.206Z,35.22
2023-04-10T06:43:01.881Z,30.38
2023-04-10T06:45:28.739Z,28.25
2023-04-10T06:47:56.338Z,29.88
2023-04-10T06:50:23.230Z,31.20
2023-04-10T06:52:50.503Z,31.10
2023-04-10T06:55:17.491Z,29.13
2023-04-10T06:57:45.687Z,31.77
2023-04-10T07:00:13.189Z,31.42
2023-04-10T07:02:40.708Z,33.25
2023-04-10T07:05:08.633Z,32.55
2023-04-10T07:07:35.996Z,36.00
2023-04-10T07:10:03.396Z,33.30
2023-04-10T07:12:34.010Z,26.60
2023-04-10T07:15:01.312Z,30.27
2023-04-10T07:17:28.622Z,25.65
2023-04-10T07:19:55.636Z,23.77
2023-04-10T07:22:22.810Z,28.55
2023-04-10T07:24:49.786Z,21.38
2023-04-10T07:27:17.197Z,25.92
2023-04-10T07:29:44.080Z,26.42
2023-04-10T07:32:11.687Z,26.83
2023-04-10T07:34:38.660Z,26.98
2023-04-10T07:37:05.967Z,26.98
2023-04-10T07:39:32.868Z,23.98
2023-04-10T07:42:00.539Z,26.92
2023-04-10T07:44:27.680Z,26.10
2023-04-10T07:46:56.012Z,29.42
2023-04-10T07:49:23.521Z,25.80
2023-04-10T07:51:50.669Z,26.95
2023-04-10T07:54:18.560Z,26.88
2023-04-10T07:56:45.697Z,39.05
2023-04-10T07:59:12.851Z,37.22
2023-04-10T08:01:40.957Z,28.92
2023-04-10T08:04:08.598Z,32.22
2023-04-10T08:06:35.848Z,21.65
2023-04-10T08:09:02.820Z,32.55
2023-04-10T08:11:32.108Z,27.85
2023-04-10T08:14:04.079Z,28.13
2023-04-10T08:16:33.673Z,37.60
2023-04-10T08:19:01.553Z,45.10
2023-04-10T08:21:32.165Z,26.70
2023-04-10T08:24:01.760Z,63.85
2023-04-10T08:26:29.644Z,40.33
2023-04-10T08:28:58.310Z,31.98
2023-04-10T08:31:27.426Z,37.00
2023-04-10T08:33:54.709Z,65.50
2023-04-10T08:36:22.282Z,19.58
2023-04-10T08:38:49.255Z,17.92
2023-04-10T08:41:18.822Z,17.27
2023-04-10T08:43:46.558Z,47.90
2023-04-10T08:46:15.103Z,11.97
2023-04-10T08:49:01.429Z,20.33
2023-04-10T08:51:41.802Z,44.53
2023-04-10T08:54:26.112Z,14.35
2023-04-10T08:56:55.017Z,19.13
2023-04-10T08:59:22.366Z,11.63
2023-04-10T09:01:49.719Z,10.55
2023-04-10T09:04:19.942Z,14.32
2023-04-10T09:06:47.172Z,10.45
2023-04-10T09:09:14.093Z,12.05
2023-04-10T09:11:53.107Z,12.15
2023-04-10T09:14:25.696Z,8.98
2023-04-10T09:16:53.972Z,12.05
2023-04-10T09:19:31.430Z,10.50
2023-04-10T09:21:58.646Z,9.38
2023-04-10T09:24:26.322Z,9.60
2023-04-10T09:26:53.763Z,8.63
2023-04-10T09:29:20.883Z,8.60
2023-04-10T09:31:48.134Z,7.70
2023-04-10T09:34:19.130Z,9.68
2023-04-10T09:37:01.375Z,10.90
2023-04-10T09:39:36.324Z,10.82
2023-04-10T09:42:03.645Z,11.50
2023-04-10T09:44:32.864Z,10.07
2023-04-10T09:47:18.921Z,11.55
2023-04-10T09:49:49.404Z,9.93
2023-04-10T09:52:22.443Z,14.45
2023-04-10T09:54:49.341Z,11.23
2023-04-10T09:57:21.602Z,10.63
2023-04-10T09:59:51.690Z,20.80
2023-04-10T10:02:20.642Z,11.23
2023-04-10T10:07:17.446Z,12.63
2023-04-10T10:09:45.899Z,11.25
2023-04-10T10:12:16.933Z,9.45
2023-04-10T10:15:12.430Z,10.45
2023-04-10T10:17:46.976Z,10.02
2023-04-10T10:20:17.968Z,6.85
2023-04-10T10:22:46.580Z,7.32
2023-04-10T10:25:13.844Z,9.25
2023-04-10T10:27:42.001Z,9.68
2023-04-10T10:30:28.255Z,9.80
2023-04-10T10:32:57.095Z,9.65
2023-04-10T10:35:28.737Z,11.57
2023-04-10T10:37:59.900Z,8.77
2023-04-10T10:40:45.064Z,11.48
2023-04-10T10:43:22.689Z,10.18
2023-04-10T10:46:01.929Z,11.50
2023-04-10T10:48:29.212Z,10.45
2023-04-10T10:50:59.138Z,8.60
2023-04-10T10:53:40.444Z,13.40
2023-04-10T10:56:19.271Z,9.82
2023-04-10T10:58:48.516Z,5.80
2023-04-10T11:01:16.349Z,10.85
2023-04-10T11:03:47.162Z,7.18
2023-04-10T11:06:19.739Z,8.95
2023-04-10T11:08:53.306Z,7.07
2023-04-10T11:11:27.496Z,9.45
2023-04-10T11:13:57.249Z,8.27
2023-04-10T11:16:43.804Z,6.05
2023-04-10T11:19:20.009Z,9.95
2023-04-10T11:22:04.331Z,10.75
2023-04-10T11:24:57.520Z,11.73
2023-04-10T11:27:48.638Z,5.43
2023-04-10T11:30:48.418Z,6.63
2023-04-10T11:33:19.285Z,8.05
2023-04-10T11:35:46.577Z,9.63
2023-04-10T11:38:16.108Z,7.20
2023-04-10T11:41:04.561Z,8.48
2023-04-10T11:43:32.408Z,7.47
2023-04-10T11:46:08.752Z,5.82
2023-04-10T11:48:37.724Z,6.85
2023-04-10T11:51:13.232Z,7.63
2023-04-10T11:53:41.273Z,7.38
2023-04-10T11:56:22.166Z,5.75
2023-04-10T11:58:54.751Z,6.13
2023-04-10T12:01:23.452Z,7.43
2023-04-10T12:03:50.994Z,7.32
2023-04-10T12:06:19.773Z,13.98
2023-04-10T12:08:49.429Z,9.55
2023-04-10T12:11:24.800Z,10.40
2023-04-10T12:13:54.032Z,11.82
2023-04-10T12:16:22.331Z,10.98
2023-04-10T12:18:50.522Z,8.30
2023-04-10T12:21:17.904Z,13.23
2023-04-10T12:23:44.723Z,11.52
2023-04-10T12:26:13.560Z,7.47
2023-04-10T12:28:42.856Z,11.77
2023-04-10T12:31:10.215Z,13.55
2023-04-10T12:33:37.327Z,8.13
2023-04-10T12:36:04.791Z,6.88
2023-04-10T12:38:45.116Z,6.85
2023-04-10T12:41:12.752Z,9.05
2023-04-10T12:43:41.315Z,7.28
2023-04-10T12:48:37.157Z,4.75
2023-04-10T12:51:04.508Z,10.73
2023-04-10T12:53:31.959Z,5.97
2023-04-10T12:56:05.184Z,8.23
2023-04-10T12:58:33.392Z,5.28
2023-04-10T13:01:06.243Z,10.18
2023-04-10T13:03:39.320Z,8.45
2023-04-10T13:06:08.579Z,11.20
2023-04-10T13:08:36.001Z,7.35
2023-04-10T13:11:03.783Z,8.73
2023-04-10T13:13:33.760Z,6.15
2023-04-10T13:16:01.450Z,8.38
2023-04-10T13:18:28.474Z,8.48
2023-04-10T13:20:56.090Z,7.85
2023-04-10T13:23:23.063Z,7.30
2023-04-10T13:25:51.169Z,6.78
2023-04-10T13:28:19.008Z,7.20
2023-04-10T13:30:46.198Z,6.15
2023-04-10T13:33:13.250Z,7.65
2023-04-10T13:35:41.717Z,8.52
2023-04-10T13:38:09.601Z,11.45
2023-04-10T13:40:37.392Z,8.35
2023-04-10T13:43:06.512Z,10.57
2023-04-10T13:45:34.961Z,9.95
2023-04-10T13:48:02.112Z,10.38
2023-04-10T13:50:29.550Z,10.68
2023-04-10T13:52:56.388Z,9.00
2023-04-10T13:55:23.584Z,6.05
2023-04-10T13:57:50.923Z,7.45
2023-04-10T14:00:18.457Z,7.38
2023-04-10T14:02:45.917Z,6.45
2023-04-10T14:05:13.237Z,7.40
2023-04-10T14:07:40.118Z,7.18
2023-04-10T14:10:08.082Z,9.45
2023-04-10T14:12:36.219Z,6.95
2023-04-10T14:15:05.337Z,12.98
2023-04-10T14:17:32.237Z,8.30
2023-04-10T14:19:59.463Z,7.50
2023-04-10T14:22:26.453Z,6.80
2023-04-10T14:25:05.287Z,7.47
2023-04-10T14:27:39.076Z,8.00
2023-04-10T14:30:06.977Z,7.15
2023-04-10T14:32:33.929Z,6.93
2023-04-10T14:35:01.116Z,7.28
2023-04-10T14:37:28.177Z,9.13
2023-04-10T14:39:55.922Z,6.05
2023-04-10T14:42:23.795Z,14.90
2023-04-10T14:44:51.002Z,7.95
2023-04-10T14:47:18.635Z,10.48
2023-04-10T14:49:45.898Z,8.65
2023-04-10T14:52:12.732Z,11.30
2023-04-10T14:54:39.908Z,10.23
2023-04-10T14:57:07.659Z,9.27
2023-04-10T14:59:34.804Z,8.98
2023-04-10T15:02:01.656Z,7.75
2023-04-10T15:04:29.039Z,5.03
2023-04-10T15:06:56.009Z,6.45
2023-04-10T15:09:23.204Z,17.45
2023-04-10T15:11:50.147Z,12.98
2023-04-10T15:14:17.236Z,16.63
2023-04-10T15:16:44.155Z,11.35
2023-04-10T15:19:11.360Z,11.30
2023-04-10T15:21:38.285Z,11.20
2023-04-10T15:24:05.808Z,10.10
2023-04-10T15:26:32.763Z,21.80
2023-04-10T15:28:59.999Z,18.13
2023-04-10T15:31:26.923Z,12.35
2023-04-10T15:33:54.389Z,9.73
2023-04-10T15:36:21.558Z,26.30
2023-04-10T15:38:50.184Z,22.63
2023-04-10T15:41:17.353Z,8.82
2023-04-10T15:43:44.547Z,16.75
2023-04-10T15:46:11.572Z,12.00
2023-04-10T15:48:38.740Z,17.05
2023-04-10T15:51:06.742Z,14.93
2023-04-10T15:53:34.895Z,21.33
2023-04-10T15:56:04.738Z,16.00
2023-04-10T15:58:32.691Z,12.55
2023-04-10T16:00:59.981Z,27.70
2023-04-10T16:03:29.931Z,27.15
2023-04-10T16:05:58.448Z,13.27
2023-04-10T16:08:26.527Z,12.07
2023-04-10T16:10:54.127Z,14.95
2023-04-10T16:13:21.322Z,10.25
2023-04-10T16:15:49.709Z,11.60
2023-04-10T16:18:17.054Z,14.43
2023-04-10T16:20:43.986Z,17.52
2023-04-10T16:23:11.147Z,15.43
2023-04-10T16:25:38.068Z,16.90
2023-04-10T16:28:08.055Z,13.63
2023-04-10T16:30:35.959Z,16.98
2023-04-10T16:33:04.218Z,13.75
2023-04-10T16:35:31.523Z,18.23
2023-04-10T16:37:58.835Z,13.98
2023-04-10T16:40:32.586Z,18.83
2023-04-10T16:43:01.992Z,13.27
2023-04-10T16:45:29.119Z,11.13
2023-04-10T16:47:56.503Z,12.95
2023-04-10T16:50:23.478Z,14.52
2023-04-10T16:52:50.697Z,14.10
2023-04-10T16:55:17.796Z,14.57
2023-04-10T16:57:45.896Z,17.90
2023-04-10T17:00:13.253Z,14.13
2023-04-10T17:02:40.418Z,17.55
2023-04-10T17:05:07.407Z,24.30
2023-04-10T17:07:34.686Z,29.27
2023-04-10T17:10:01.636Z,28.33
2023-04-10T17:12:28.890Z,29.95
2023-04-10T17:14:55.916Z,29.27
2023-04-10T17:17:23.188Z,23.50
2023-04-10T17:19:50.148Z,32.15
2023-04-10T17:22:17.544Z,32.38
2023-04-10T17:24:45.362Z,29.73
2023-04-10T17:27:14.459Z,31.27
2023-04-10T17:29:41.407Z,24.67
2023-04-10T17:32:09.434Z,23.05
2023-04-10T17:34:36.313Z,27.60
2023-04-10T17:37:03.546Z,42.42
2023-04-10T17:39:30.448Z,29.17
2023-04-10T17:41:57.739Z,46.13
2023-04-10T17:44:24.745Z,52.95
2023-04-10T17:46:53.720Z,56.63
2023-04-10T17:49:22.096Z,39.35
2023-04-10T17:51:49.864Z,29.73
2023-04-10T17:54:16.798Z,29.52
2023-04-10T17:56:44.149Z,34.90
2023-04-10T17:59:11.046Z,34.08
2023-04-10T18:01:38.402Z,26.60
2023-04-10T18:04:05.906Z,48.45
2023-04-10T18:06:33.147Z,42.78
2023-04-10T18:09:00.131Z,65.43
2023-04-10T18:11:27.312Z,51.90
2023-04-10T18:13:54.267Z,82.80
2023-04-10T18:16:21.508Z,78.03
2023-04-10T18:18:48.415Z,79.28
2023-04-10T18:21:15.523Z,53.42
2023-04-10T18:23:44.503Z,52.83
2023-04-10T18:28:39.580Z,48.15
2023-04-10T18:31:08.507Z,59.70
2023-04-10T18:33:35.594Z,56.78
2023-04-10T18:36:03.611Z,100.38
2023-04-10T18:38:30.910Z,99.32
2023-04-10T18:40:58.276Z,104.82
2023-04-10T18:43:27.461Z,133.45
2023-04-10T18:45:55.219Z,84.25
2023-04-10T18:48:22.562Z,92.55
2023-04-10T18:50:53.442Z,100.47
2023-04-10T18:53:21.257Z,126.22
2023-04-10T18:55:50.625Z,94.78
2023-04-10T18:58:17.954Z,91.25
2023-04-10T19:00:45.397Z,136.75
2023-04-10T19:03:13.076Z,110.05
2023-04-10T19:05:41.954Z,148.43
2023-04-10T19:08:09.494Z,127.80
2023-04-10T19:10:37.640Z,95.68
2023-04-10T19:13:04.478Z,136.05
2023-04-10T19:15:31.623Z,145.52
2023-04-10T19:17:58.596Z,129.30
2023-04-10T19:20:50.810Z,137.95
2023-04-10T19:23:13.134Z,124.20
2023-04-10T19:25:41.016Z,142.32
2023-04-10T19:28:07.935Z,153.60
2023-04-10T19:30:35.323Z,169.95
2023-04-10T19:33:02.264Z,151.10
2023-04-10T19:35:29.543Z,154.57
2023-04-10T19:37:57.617Z,146.35
2023-04-10T19:40:24.866Z,149.23
2023-04-10T19:42:51.818Z,187.10
2023-04-10T19:45:19.040Z,181.23
2023-04-10T19:47:45.904Z,174.45
2023-04-10T19:50:13.178Z,187.10
2023-04-10T19:52:40.051Z,181.43
2023-04-10T19:55:07.865Z,178.50
2023-04-10T19:57:35.077Z,168.27
2023-04-10T20:00:02.338Z,155.38
2023-04-10T20:02:29.470Z,180.23
2023-04-10T20:04:56.776Z,215.38
2023-04-10T20:07:24.425Z,197.13
2023-04-10T20:09:51.565Z,187.43
2023-04-10T20:12:18.376Z,183.93
2023-04-10T20:14:45.516Z,216.47
2023-04-10T20:17:12.544Z,154.67
2023-04-10T20:19:40.052Z,172.57
2023-04-10T20:22:07.923Z,160.93
2023-04-10T20:24:35.202Z,153.90
2023-04-10T20:27:02.563Z,183.47
2023-04-10T20:29:29.892Z,193.63
2023-04-10T20:31:56.886Z,174.53
2023-04-10T20:34:24.077Z,128.57
2023-04-10T20:36:50.961Z,117.10
2023-04-10T20:39:18.363Z,172.30
2023-04-10T20:41:45.252Z,138.27
2023-04-10T20:44:12.504Z,133.07
2023-04-10T20:46:40.405Z,119.47
2023-04-10T20:49:07.670Z,110.60
2023-04-10T20:51:37.216Z,105.37
2023-04-10T20:54:06.493Z,116.53
2023-04-10T20:56:42.882Z,147.02
2023-04-10T20:59:11.593Z,152.43
2023-04-10T21:01:38.768Z,143.43
2023-04-10T21:04:06.323Z,125.93
2023-04-10T21:06:33.743Z,122.57
2023-04-10T21:09:01.017Z,133.53
2023-04-10T21:11:28.001Z,129.27
2023-04-10T21:13:55.238Z,106.67
2023-04-10T21:16:22.150Z,138.63
2023-04-10T21:18:49.345Z,193.70
2023-04-10T21:21:16.615Z,157.70
2023-04-10T21:23:43.778Z,139.53
2023-04-10T21:26:10.776Z,178.57
2023-04-10T21:28:37.920Z,174.33
2023-04-10T21:31:05.134Z,186.33
2023-04-10T21:33:32.945Z,181.63
2023-04-10T21:35:59.955Z,158.37
2023-04-10T21:38:27.305Z,140.00
2023-04-10T21:40:54.645Z,114.53
2023-04-10T21:43:22.378Z,109.23
2023-04-10T21:45:49.529Z,112.80
2023-04-10T21:48:16.867Z,115.97
2023-04-10T21:50:43.800Z,121.40
2023-04-10T21:53:11.101Z,137.30
2023-04-10T21:55:38.198Z,115.53
2023-04-10T21:58:05.860Z,116.40
2023-04-10T22:00:33.583Z,126.17
2023-04-10T22:03:00.937Z,118.03
2023-04-10T22:05:28.058Z,118.30
2023-04-10T22:07:55.272Z,99.43
2023-04-10T22:10:22.841Z,97.33
2023-04-10T22:12:49.924Z,100.33
2023-04-10T22:15:17.214Z,114.97
2023-04-10T22:17:44.540Z,104.37
2023-04-10T22:20:11.464Z,104.47
2023-04-10T22:22:38.620Z,126.83
2023-04-10T22:25:06.105Z,96.73
2023-04-10T22:27:33.474Z,86.57
2023-04-10T22:30:03.743Z,79.63
2023-04-10T22:32:32.266Z,79.47
2023-04-10T22:34:59.967Z,87.23
2023-04-10T22:37:27.770Z,84.07
2023-04-10T22:39:56.390Z,78.17
2023-04-10T22:42:24.128Z,88.25
2023-04-10T22:44:51.135Z,93.37
2023-04-10T22:47:18.486Z,103.33
2023-04-10T22:49:45.470Z,79.77
2023-04-10T22:52:13.267Z,84.87
2023-04-10T22:54:40.130Z,79.67
2023-04-10T22:57:07.733Z,75.20
2023-04-10T22:59:38.040Z,75.30
2023-04-10T23:02:05.717Z,75.80
2023-04-10T23:04:32.781Z,83.40
2023-04-10T23:06:59.983Z,82.43
2023-04-10T23:09:26.900Z,80.07
2023-04-10T23:11:54.122Z,75.90
2023-04-10T23:14:21.009Z,84.93
2023-04-10T23:16:49.586Z,76.87
2023-04-10T23:19:19.121Z,71.97
2023-04-10T23:21:46.282Z,65.87
2023-04-10T23:24:13.213Z,73.20
2023-04-10T23:26:40.404Z,65.10
2023-04-10T23:29:07.223Z,73.23
2023-04-10T23:31:34.400Z,72.67
2023-04-10T23:34:01.293Z,68.70
2023-04-10T23:36:28.500Z,73.17
2023-04-10T23:38:55.679Z,67.27
2023-04-10T23:41:22.935Z,69.93
2023-04-10T23:43:49.752Z,70.27
2023-04-10T23:46:17.100Z,69.57
2023-04-10T23:48:43.958Z,65.50
2023-04-10T23:51:11.132Z,77.33
2023-04-10T23:53:38.028Z,70.67
2023-04-10T23:56:07.946Z,65.43
2023-04-10T23:58:34.872Z,69.80
